createdAt,value
2023-02-06T00:01:07.283Z,22.96
2023-02-06T00:03:38.330Z,22.92
2023-02-06T00:06:09.661Z,22.95
2023-02-06T00:08:40.733Z,22.57
2023-02-06T00:11:12.782Z,22.38
2023-02-06T00:13:43.496Z,22.55
2023-02-06T00:16:29.156Z,22.53
2023-02-06T00:19:01.675Z,22.49
2023-02-06T00:21:33.305Z,22.42
2023-02-06T00:24:05.574Z,22.33
2023-02-06T00:26:37.027Z,22.30
2023-02-06T00:29:08.042Z,22.40
2023-02-06T00:31:39.179Z,22.27
2023-02-06T00:34:10.285Z,22.36
2023-02-06T00:36:43.327Z,22.61
2023-02-06T00:39:14.442Z,22.73
2023-02-06T00:41:46.794Z,22.66
2023-02-06T00:44:18.038Z,22.53
2023-02-06T00:46:48.741Z,22.63
2023-02-06T00:49:20.637Z,22.81
2023-02-06T00:51:51.508Z,22.96
2023-02-06T00:54:22.768Z,22.97
2023-02-06T00:56:53.952Z,22.67
2023-02-06T00:59:25.334Z,22.89
2023-02-06T01:01:56.693Z,23.05
2023-02-06T01:04:27.728Z,23.32
2023-02-06T01:06:58.668Z,24.59
2023-02-06T01:09:29.918Z,24.69
2023-02-06T01:12:01.039Z,25.34
2023-02-06T01:14:31.885Z,25.19
2023-02-06T01:17:03.048Z,25.66
2023-02-06T01:19:34.461Z,25.55
2023-02-06T01:22:05.479Z,26.28
2023-02-06T01:24:36.681Z,26.43
2023-02-06T01:27:08.030Z,25.97
2023-02-06T01:29:39.221Z,25.04
2023-02-06T01:32:10.451Z,25.58
2023-02-06T01:34:41.957Z,25.71
2023-02-06T01:37:13.177Z,25.60
2023-02-06T01:39:44.011Z,25.36
2023-02-06T01:42:16.786Z,25.53
2023-02-06T01:44:48.869Z,25.47
2023-02-06T01:47:20.717Z,25.39
2023-02-06T01:49:51.215Z,25.24
2023-02-06T01:52:27.514Z,25.52
2023-02-06T01:55:05.556Z,25.79
2023-02-06T01:57:37.546Z,25.74
2023-02-06T02:00:12.381Z,26.10
2023-02-06T02:02:49.791Z,25.70
2023-02-06T02:05:22.436Z,25.87
2023-02-06T02:08:02.797Z,26.17
2023-02-06T02:10:34.492Z,25.42
2023-02-06T02:13:05.542Z,25.78
2023-02-06T02:16:03.430Z,25.71
2023-02-06T02:18:54.096Z,25.56
2023-02-06T02:21:55.803Z,25.79
2023-02-06T02:24:33.026Z,26.70
2023-02-06T02:27:22.655Z,26.32
2023-02-06T02:30:30.426Z,26.43
2023-02-06T02:33:35.357Z,26.21
2023-02-06T02:36:17.503Z,26.48
2023-02-06T02:38:51.926Z,27.05
2023-02-06T02:41:51.408Z,26.78
2023-02-06T02:44:37.869Z,27.07
2023-02-06T02:47:10.983Z,26.85
2023-02-06T02:49:44.300Z,27.14
2023-02-06T02:52:17.668Z,26.51
2023-02-06T02:54:48.632Z,26.69
2023-02-06T02:57:30.588Z,26.91
2023-02-06T03:00:03.621Z,27.32
2023-02-06T03:02:38.350Z,27.50
2023-02-06T03:05:13.372Z,27.03
2023-02-06T03:08:10.320Z,27.28
2023-02-06T03:10:50.940Z,27.26
2023-02-06T03:13:49.630Z,27.94
2023-02-06T03:16:31.259Z,28.01
2023-02-06T03:19:20.197Z,28.05
2023-02-06T03:21:52.788Z,27.94
2023-02-06T03:24:27.264Z,27.58
2023-02-06T03:27:02.274Z,27.79
2023-02-06T03:29:35.469Z,27.47
2023-02-06T03:32:19.649Z,27.50
2023-02-06T03:35:07.476Z,27.65
2023-02-06T03:37:39.718Z,27.02
2023-02-06T03:40:11.773Z,27.06
2023-02-06T03:42:47.138Z,27.97
2023-02-06T03:45:40.525Z,27.12
2023-02-06T03:48:15.411Z,27.04
2023-02-06T03:50:49.416Z,26.64
2023-02-06T03:53:23.716Z,27.08
2023-02-06T03:55:58.341Z,27.28
2023-02-06T03:58:29.978Z,27.76
2023-02-06T04:01:02.495Z,27.26
2023-02-06T04:03:34.464Z,27.12
2023-02-06T04:06:05.653Z,27.09
2023-02-06T04:08:37.553Z,27.12
2023-02-06T04:11:08.869Z,27.33
2023-02-06T04:13:40.057Z,27.19
2023-02-06T04:16:11.360Z,27.39
2023-02-06T04:18:42.552Z,27.55
2023-02-06T04:21:13.278Z,27.87
2023-02-06T04:23:44.336Z,27.55
2023-02-06T04:26:15.687Z,27.51
2023-02-06T04:28:46.785Z,27.34
2023-02-06T04:31:17.951Z,26.94
2023-02-06T04:33:48.515Z,27.09
2023-02-06T04:36:19.651Z,27.10
2023-02-06T04:38:50.605Z,27.10
2023-02-06T04:41:25.128Z,26.89
2023-02-06T04:43:56.263Z,26.59
2023-02-06T04:46:28.075Z,26.66
2023-02-06T04:48:58.615Z,26.62
2023-02-06T04:51:29.826Z,26.24
2023-02-06T04:54:00.593Z,26.83
2023-02-06T04:56:31.802Z,26.85
2023-02-06T04:59:02.891Z,26.53
2023-02-06T05:01:34.584Z,26.33
2023-02-06T05:04:06.198Z,26.22
2023-02-06T05:06:37.902Z,26.42
2023-02-06T05:09:09.429Z,26.34
2023-02-06T05:11:40.630Z,26.26
2023-02-06T05:14:11.396Z,25.95
2023-02-06T05:16:42.529Z,25.90
2023-02-06T05:19:13.546Z,25.96
2023-02-06T05:21:44.378Z,26.21
2023-02-06T05:24:15.700Z,26.10
2023-02-06T05:26:47.924Z,25.92
2023-02-06T05:29:18.957Z,25.91
2023-02-06T05:31:50.113Z,25.97
2023-02-06T05:34:24.011Z,25.88
2023-02-06T05:36:54.448Z,26.04
2023-02-06T05:39:25.870Z,25.83
2023-02-06T05:41:56.860Z,25.73
2023-02-06T05:44:28.118Z,25.35
2023-02-06T05:46:59.771Z,25.57
2023-02-06T05:49:31.080Z,25.46
2023-02-06T05:52:02.388Z,25.60
2023-02-06T05:54:33.848Z,25.65
2023-02-06T05:57:05.624Z,25.32
2023-02-06T05:59:36.939Z,25.44
2023-02-06T06:02:08.442Z,25.43
2023-02-06T06:04:38.796Z,25.24
2023-02-06T06:07:09.794Z,25.49
2023-02-06T06:09:42.428Z,25.21
2023-02-06T06:12:13.686Z,25.33
2023-02-06T06:14:44.375Z,25.33
2023-02-06T06:17:15.573Z,25.05
2023-02-06T06:19:46.437Z,24.59
2023-02-06T06:22:17.683Z,24.37
2023-02-06T06:24:49.245Z,24.00
2023-02-06T06:27:20.381Z,24.42
2023-02-06T06:29:51.746Z,24.38
2023-02-06T06:32:23.004Z,24.14
2023-02-06T06:34:53.950Z,23.99
2023-02-06T06:37:25.336Z,23.87
2023-02-06T06:39:56.493Z,23.81
2023-02-06T06:42:27.666Z,24.12
2023-02-06T06:44:58.596Z,24.24
2023-02-06T06:47:30.233Z,24.07
2023-02-06T06:50:01.468Z,23.72
2023-02-06T06:52:33.584Z,23.85
2023-02-06T06:55:04.862Z,23.36
2023-02-06T06:57:35.979Z,23.37
2023-02-06T07:00:07.736Z,23.59
2023-02-06T07:02:38.106Z,23.31
2023-02-06T07:05:09.486Z,23.12
2023-02-06T07:07:40.889Z,22.96
2023-02-06T07:10:13.014Z,23.10
2023-02-06T07:12:44.588Z,22.75
2023-02-06T07:15:15.750Z,22.41
2023-02-06T07:17:46.745Z,22.74
2023-02-06T07:20:18.227Z,22.38
2023-02-06T07:22:51.244Z,22.49
2023-02-06T07:25:22.817Z,22.53
2023-02-06T07:27:54.145Z,22.56
2023-02-06T07:30:25.471Z,22.33
2023-02-06T07:32:56.505Z,22.26
2023-02-06T07:35:27.425Z,22.12
2023-02-06T07:37:58.999Z,21.81
2023-02-06T07:40:44.053Z,21.94
2023-02-06T07:43:16.348Z,22.03
2023-02-06T07:45:47.870Z,21.91
2023-02-06T07:48:19.605Z,21.80
2023-02-06T07:50:50.960Z,21.70
2023-02-06T07:53:22.559Z,21.66
2023-02-06T07:55:53.009Z,21.76
2023-02-06T07:58:24.225Z,21.43
2023-02-06T08:00:56.349Z,21.62
2023-02-06T08:03:27.932Z,21.43
2023-02-06T08:05:58.973Z,21.39
2023-02-06T08:08:30.129Z,21.23
2023-02-06T08:11:00.862Z,21.12
2023-02-06T08:13:31.957Z,21.21
2023-02-06T08:16:10.175Z,21.20
2023-02-06T08:18:41.740Z,20.96
2023-02-06T08:21:15.157Z,21.06
2023-02-06T08:23:47.340Z,20.83
2023-02-06T08:26:18.979Z,20.82
2023-02-06T08:28:52.131Z,20.85
2023-02-06T08:31:26.480Z,20.69
2023-02-06T08:33:58.624Z,20.62
2023-02-06T08:36:33.486Z,20.65
2023-02-06T08:39:06.144Z,20.58
2023-02-06T08:41:40.045Z,20.47
2023-02-06T08:44:18.707Z,20.52
2023-02-06T08:46:56.198Z,20.49
2023-02-06T08:49:33.434Z,20.28
2023-02-06T08:52:04.939Z,20.35
2023-02-06T08:54:38.746Z,20.29
2023-02-06T08:57:11.250Z,20.19
2023-02-06T08:59:43.032Z,20.29
2023-02-06T09:02:14.413Z,20.12
2023-02-06T09:04:46.042Z,20.18
2023-02-06T09:07:17.456Z,20.19
2023-02-06T09:09:48.283Z,20.08
2023-02-06T09:12:19.437Z,20.09
2023-02-06T09:14:51.402Z,20.15
2023-02-06T09:17:21.977Z,20.08
2023-02-06T09:19:53.309Z,20.04
2023-02-06T09:22:24.493Z,20.06
2023-02-06T09:24:55.864Z,19.96
2023-02-06T09:27:26.937Z,19.94
2023-02-06T09:29:58.051Z,19.99
2023-02-06T09:32:29.054Z,20.05
2023-02-06T09:35:00.838Z,19.87
2023-02-06T09:37:35.241Z,19.83
2023-02-06T09:40:06.525Z,19.76
2023-02-06T09:42:40.447Z,19.69
2023-02-06T09:45:32.477Z,19.60
2023-02-06T09:48:24.646Z,19.55
2023-02-06T09:51:08.893Z,19.60
2023-02-06T09:54:01.493Z,19.51
2023-02-06T09:56:52.897Z,19.44
2023-02-06T09:59:33.699Z,19.31
2023-02-06T10:02:07.621Z,19.47
2023-02-06T10:04:54.330Z,19.60
2023-02-06T10:07:32.911Z,19.57
2023-02-06T10:10:20.646Z,19.57
2023-02-06T10:13:11.535Z,19.44
2023-02-06T10:15:54.428Z,19.42
2023-02-06T10:18:41.538Z,19.30
2023-02-06T10:21:15.454Z,19.23
2023-02-06T10:24:21.664Z,19.25
2023-02-06T10:26:55.012Z,19.25
2023-02-06T10:29:31.837Z,19.22
2023-02-06T10:32:23.415Z,19.07
2023-02-06T10:35:06.439Z,18.98
2023-02-06T10:38:10.719Z,18.95
2023-02-06T10:40:48.881Z,18.90
2023-02-06T10:43:46.178Z,18.88
2023-02-06T10:46:40.523Z,18.88
2023-02-06T10:49:38.136Z,18.96
2023-02-06T10:52:31.342Z,18.77
2023-02-06T10:55:26.196Z,18.69
2023-02-06T10:58:18.304Z,18.80
2023-02-06T11:00:51.161Z,18.81
2023-02-06T11:03:26.194Z,18.84
2023-02-06T11:05:58.198Z,18.78
2023-02-06T11:08:41.847Z,18.73
2023-02-06T11:11:28.286Z,18.74
2023-02-06T11:14:13.892Z,18.66
2023-02-06T11:16:45.464Z,18.67
2023-02-06T11:19:27.981Z,18.57
2023-02-06T11:22:11.986Z,18.45
2023-02-06T11:25:03.935Z,18.50
2023-02-06T11:27:37.051Z,18.54
2023-02-06T11:30:33.468Z,18.65
2023-02-06T11:33:38.081Z,18.48
2023-02-06T11:36:33.209Z,18.37
2023-02-06T11:39:08.675Z,18.17
2023-02-06T11:41:39.827Z,18.12
2023-02-06T11:44:16.210Z,18.15
2023-02-06T11:46:47.273Z,18.22
2023-02-06T11:49:28.143Z,18.26
2023-02-06T11:52:05.309Z,18.24
2023-02-06T11:54:37.908Z,18.15
2023-02-06T11:57:39.111Z,18.34
2023-02-06T12:00:30.285Z,18.34
2023-02-06T12:03:01.588Z,18.32
2023-02-06T12:05:37.657Z,18.27
2023-02-06T12:08:20.021Z,18.36
2023-02-06T12:10:58.770Z,18.31
2023-02-06T12:13:39.585Z,18.22
2023-02-06T12:16:12.890Z,18.27
2023-02-06T12:18:46.118Z,18.24
2023-02-06T12:21:26.428Z,18.24
2023-02-06T12:24:32.612Z,18.27
2023-02-06T12:27:12.153Z,18.19
2023-02-06T12:29:58.534Z,18.07
2023-02-06T12:32:44.117Z,17.99
2023-02-06T12:35:23.165Z,18.10
2023-02-06T12:37:58.426Z,17.98
2023-02-06T12:40:53.880Z,17.86
2023-02-06T12:43:25.143Z,17.67
2023-02-06T12:46:06.504Z,17.83
2023-02-06T12:48:54.563Z,17.88
2023-02-06T12:51:25.379Z,17.82
2023-02-06T12:54:03.650Z,17.83
2023-02-06T12:56:46.366Z,17.80
2023-02-06T12:59:52.266Z,17.70
2023-02-06T13:02:31.316Z,17.64
2023-02-06T13:05:07.251Z,17.64
2023-02-06T13:07:49.293Z,17.57
2023-02-06T13:10:23.357Z,17.52
2023-02-06T13:13:01.759Z,17.33
2023-02-06T13:15:43.095Z,17.35
2023-02-06T13:18:41.500Z,17.33
2023-02-06T13:21:33.601Z,17.42
2023-02-06T13:24:04.467Z,17.46
2023-02-06T13:26:52.953Z,17.42
2023-02-06T13:29:29.117Z,17.31
2023-02-06T13:32:21.278Z,17.23
2023-02-06T13:34:52.059Z,17.22
2023-02-06T13:37:29.117Z,17.09
2023-02-06T13:40:28.116Z,17.02
2023-02-06T13:43:02.304Z,16.90
2023-02-06T13:45:49.061Z,16.97
2023-02-06T13:48:41.451Z,16.72
2023-02-06T13:51:31.729Z,16.70
2023-02-06T13:54:24.142Z,16.63
2023-02-06T13:57:26.196Z,16.72
2023-02-06T14:00:06.187Z,16.54
2023-02-06T14:02:44.001Z,16.56
2023-02-06T14:05:32.282Z,16.50
2023-02-06T14:08:27.137Z,16.38
2023-02-06T14:11:01.421Z,16.50
2023-02-06T14:14:00.407Z,16.53
2023-02-06T14:16:44.725Z,16.44
2023-02-06T14:19:42.615Z,16.41
2023-02-06T14:22:37.393Z,16.45
2023-02-06T14:25:33.455Z,16.59
2023-02-06T14:28:19.154Z,16.62
2023-02-06T14:30:50.258Z,16.59
2023-02-06T14:33:39.722Z,16.74
2023-02-06T14:36:46.376Z,16.58
2023-02-06T14:39:35.921Z,16.66
2023-02-06T14:42:25.018Z,16.51
2023-02-06T14:45:07.655Z,16.55
2023-02-06T14:47:44.551Z,16.46
2023-02-06T14:50:32.444Z,16.53
2023-02-06T14:53:12.022Z,16.61
2023-02-06T14:55:46.586Z,16.70
2023-02-06T14:58:30.637Z,16.80
2023-02-06T15:01:25.701Z,16.72
2023-02-06T15:04:17.802Z,16.82
2023-02-06T15:06:56.539Z,16.80
2023-02-06T15:09:34.856Z,16.91
2023-02-06T15:12:20.963Z,17.06
2023-02-06T15:15:04.301Z,16.99
2023-02-06T15:17:35.917Z,17.00
2023-02-06T15:20:30.042Z,16.94
2023-02-06T15:23:17.216Z,16.87
2023-02-06T15:26:04.675Z,16.88
2023-02-06T15:28:37.280Z,16.91
2023-02-06T15:31:19.345Z,16.95
2023-02-06T15:33:59.619Z,16.89
2023-02-06T15:36:37.162Z,16.85
2023-02-06T15:39:11.006Z,16.88
2023-02-06T15:41:48.170Z,16.77
2023-02-06T15:44:25.463Z,16.74
2023-02-06T15:46:57.909Z,16.70
2023-02-06T15:49:35.697Z,16.80
2023-02-06T15:52:08.271Z,16.83
2023-02-06T15:54:43.887Z,16.73
2023-02-06T15:57:28.693Z,16.91
2023-02-06T16:00:00.705Z,16.88
2023-02-06T16:02:39.634Z,17.04
2023-02-06T16:05:17.773Z,17.12
2023-02-06T16:07:50.947Z,16.99
2023-02-06T16:10:24.811Z,16.97
2023-02-06T16:12:58.809Z,16.68
2023-02-06T16:15:41.505Z,16.76
2023-02-06T16:18:29.229Z,16.80
2023-02-06T16:21:25.876Z,16.65
2023-02-06T16:24:05.393Z,16.81
2023-02-06T16:26:45.916Z,16.84
2023-02-06T16:29:32.268Z,16.99
2023-02-06T16:32:20.876Z,17.08
2023-02-06T16:34:53.102Z,17.01
2023-02-06T16:37:29.808Z,17.03
2023-02-06T16:40:00.961Z,17.06
2023-02-06T16:42:38.217Z,16.94
2023-02-06T16:45:20.384Z,16.85
2023-02-06T16:47:51.837Z,17.00
2023-02-06T16:50:23.637Z,17.00
2023-02-06T16:52:57.383Z,17.06
2023-02-06T16:55:30.315Z,16.92
2023-02-06T16:58:03.028Z,17.06
2023-02-06T17:00:35.269Z,16.78
2023-02-06T17:03:07.400Z,16.96
2023-02-06T17:05:38.835Z,16.96
2023-02-06T17:08:28.121Z,16.85
2023-02-06T17:10:59.616Z,16.84
2023-02-06T17:13:31.028Z,16.62
2023-02-06T17:16:02.202Z,16.83
2023-02-06T17:18:33.464Z,16.97
2023-02-06T17:21:04.697Z,16.92
2023-02-06T17:23:36.668Z,16.86
2023-02-06T17:26:20.580Z,16.73
2023-02-06T17:28:53.081Z,16.90
2023-02-06T17:31:24.946Z,16.73
2023-02-06T17:33:55.618Z,16.95
2023-02-06T17:36:34.489Z,16.77
2023-02-06T17:39:05.851Z,16.76
2023-02-06T17:41:37.758Z,16.64
2023-02-06T17:44:09.201Z,16.54
2023-02-06T17:46:40.834Z,16.69
2023-02-06T17:49:12.197Z,16.80
2023-02-06T17:51:44.763Z,16.75
2023-02-06T17:54:15.816Z,16.83
2023-02-06T17:56:46.958Z,16.84
2023-02-06T17:59:18.264Z,16.83
2023-02-06T18:01:50.299Z,16.92
2023-02-06T18:04:22.813Z,16.95
2023-02-06T18:06:53.261Z,17.00
2023-02-06T18:09:24.857Z,16.98
2023-02-06T18:11:55.399Z,17.06
2023-02-06T18:14:26.434Z,17.11
2023-02-06T18:16:58.176Z,17.16
2023-02-06T18:19:29.411Z,17.33
2023-02-06T18:22:00.578Z,17.53
2023-02-06T18:24:31.660Z,17.59
2023-02-06T18:27:07.015Z,17.67
2023-02-06T18:29:49.853Z,17.84
2023-02-06T18:32:21.791Z,17.98
2023-02-06T18:34:53.006Z,17.73
2023-02-06T18:37:24.311Z,17.66
2023-02-06T18:39:56.814Z,17.63
2023-02-06T18:42:45.645Z,17.52
2023-02-06T18:45:16.973Z,17.53
2023-02-06T18:47:48.601Z,17.81
2023-02-06T18:50:23.851Z,18.04
2023-02-06T18:52:55.043Z,18.48
2023-02-06T18:55:26.817Z,18.69
2023-02-06T18:57:57.313Z,18.90
2023-02-06T19:00:28.417Z,19.12
2023-02-06T19:03:00.740Z,19.51
2023-02-06T19:05:35.422Z,19.84
2023-02-06T19:08:07.609Z,20.04
2023-02-06T19:10:39.070Z,19.92
2023-02-06T19:13:09.775Z,20.17
2023-02-06T19:15:41.019Z,20.03
2023-02-06T19:18:12.190Z,20.15
2023-02-06T19:20:46.397Z,20.19
2023-02-06T19:23:17.617Z,20.09
2023-02-06T19:25:49.058Z,19.96
2023-02-06T19:28:20.013Z,20.01
2023-02-06T19:30:51.300Z,20.12
2023-02-06T19:33:22.764Z,20.25
2023-02-06T19:35:53.908Z,20.65
2023-02-06T19:38:25.118Z,21.32
2023-02-06T19:40:56.100Z,21.36
2023-02-06T19:43:27.413Z,21.48
2023-02-06T19:45:58.599Z,21.45
2023-02-06T19:48:29.752Z,21.72
2023-02-06T19:51:12.664Z,21.88
2023-02-06T19:53:47.216Z,21.47
2023-02-06T19:56:23.859Z,21.77
2023-02-06T19:59:00.608Z,21.89
2023-02-06T20:01:36.944Z,22.49
2023-02-06T20:04:08.739Z,22.19
2023-02-06T20:06:40.067Z,21.98
2023-02-06T20:09:11.993Z,21.94
2023-02-06T20:11:44.318Z,22.42
2023-02-06T20:14:15.653Z,22.62
2023-02-06T20:16:48.594Z,22.93
2023-02-06T20:19:23.311Z,23.41
2023-02-06T20:21:56.811Z,23.47
2023-02-06T20:24:31.215Z,22.87
2023-02-06T20:27:07.198Z,22.46
2023-02-06T20:29:41.278Z,22.64
2023-02-06T20:32:13.583Z,22.18
2023-02-06T20:34:45.037Z,22.35
2023-02-06T20:37:16.298Z,22.18
2023-02-06T20:39:47.604Z,22.16
2023-02-06T20:42:20.836Z,22.17
2023-02-06T20:44:51.946Z,22.10
2023-02-06T20:47:22.924Z,21.87
2023-02-06T20:49:54.199Z,21.82
2023-02-06T20:52:25.200Z,22.03
2023-02-06T20:54:56.367Z,22.32
2023-02-06T20:57:28.091Z,22.64
2023-02-06T20:59:58.811Z,23.72
2023-02-06T21:02:30.717Z,23.48
2023-02-06T21:05:02.617Z,23.47
2023-02-06T21:07:34.866Z,24.49
2023-02-06T21:10:06.671Z,24.87
2023-02-06T21:12:38.154Z,24.39
2023-02-06T21:15:09.686Z,24.18
2023-02-06T21:17:41.107Z,24.11
2023-02-06T21:20:12.696Z,24.06
2023-02-06T21:22:43.064Z,23.57
2023-02-06T21:25:14.624Z,23.32
2023-02-06T21:27:44.982Z,23.56
2023-02-06T21:30:16.501Z,22.94
2023-02-06T21:32:47.904Z,22.56
2023-02-06T21:35:18.962Z,22.20
2023-02-06T21:37:50.294Z,22.03
2023-02-06T21:40:22.502Z,22.18
2023-02-06T21:42:53.641Z,22.15
2023-02-06T21:45:25.113Z,22.37
2023-02-06T21:47:56.221Z,22.43
2023-02-06T21:50:27.810Z,22.72
2023-02-06T21:52:59.222Z,23.21
2023-02-06T21:55:33.049Z,23.11
2023-02-06T21:58:04.923Z,23.32
2023-02-06T22:00:35.857Z,23.34
2023-02-06T22:03:06.910Z,23.27
2023-02-06T22:05:39.465Z,22.72
2023-02-06T22:08:10.734Z,22.63
2023-02-06T22:10:41.829Z,22.51
2023-02-06T22:13:13.157Z,22.27
2023-02-06T22:15:52.804Z,22.39
2023-02-06T22:18:24.250Z,22.41
2023-02-06T22:21:06.511Z,22.47
2023-02-06T22:23:38.201Z,22.61
2023-02-06T22:26:11.032Z,22.65
2023-02-06T22:28:43.266Z,22.70
2023-02-06T22:31:15.493Z,23.11
2023-02-06T22:33:46.704Z,22.97
2023-02-06T22:36:20.065Z,23.12
2023-02-06T22:38:58.892Z,23.26
2023-02-06T22:41:30.999Z,23.20
2023-02-06T22:44:02.382Z,23.67
2023-02-06T22:46:36.443Z,23.57
2023-02-06T22:49:08.781Z,23.12
2023-02-06T22:51:41.342Z,23.03
2023-02-06T22:54:12.919Z,22.94
2023-02-06T22:56:43.982Z,22.85
2023-02-06T22:59:21.227Z,23.35
2023-02-06T23:02:00.384Z,23.18
2023-02-06T23:04:36.218Z,23.42
2023-02-06T23:07:07.970Z,23.53
2023-02-06T23:09:39.806Z,23.90
2023-02-06T23:12:12.878Z,23.76
2023-02-06T23:14:45.362Z,23.95
2023-02-06T23:17:16.819Z,24.33
2023-02-06T23:19:47.897Z,24.48
2023-02-06T23:22:18.708Z,25.09
2023-02-06T23:24:53.043Z,25.33
2023-02-06T23:27:24.381Z,24.43
2023-02-06T23:29:55.438Z,24.37
2023-02-06T23:32:26.262Z,24.05
2023-02-06T23:34:57.990Z,24.11
2023-02-06T23:37:32.210Z,24.61
2023-02-06T23:40:03.610Z,25.01
2023-02-06T23:42:34.899Z,25.62
2023-02-06T23:45:05.743Z,25.70
2023-02-06T23:47:37.395Z,26.59
2023-02-06T23:50:08.815Z,26.65
2023-02-06T23:52:40.257Z,25.46
2023-02-06T23:55:12.030Z,24.98
2023-02-06T23:57:43.621Z,25.17
